Main page
METAR-TAF:

METAR-TAF

Airports :

Amman, Jordan

Amman Civil Airport

latitude: 31-59N, longitude: 035-59E, elevation: 767 m

Current weather observation

The report was made 1 hour and 14 minutes ago, at 02:00 UTC
Temperature 18°C
Humidity 32%
Pressure 1015 hPa
Visibility: 5000 m
haze

METAR: OJAM 190200Z CAJMKT 5000 HZ NSC 18/01 Q1015 NOSIG

Time: 05:14 (03:14 UTC)

Forecast

The report was made 4 hours and 14 minutes ago, at 23:00 UTC
Forecast valid from 19 at 00 UTC to 20 at 06 UTC
Wind kt from the North
Visibility: 3000 m
haze
Becoming
from 19 at 07 UTC to 19 at 09 UTC
Wind 12 kt from the West
Visibility: 5000 m
Scattered clouds at a height of 3500 ft
haze
Temporary
from 19 at 07 UTC to 19 at 20 UTC
Visibility: 4000 m

TAF: OJAM 182300Z 1900/2006 00000KT 3000 HZ NSC BECMG 1907/1909 26012KT 5000 HZ SCT035 TEMPO 1907/1920 4000

Weather observations and forecasts of more than 4000 airports (METAR and TAF reports).

The available stations are represented by yellow and red dots on the map.

Hover mouse over dot to see the name of the station.

Then click to see weather observations and forecasts.

To change the map : click on the green buttons with a black cross to zoom in, on the green button with a dash to zoom out, or on the green arrows for adjacent maps.


METAR-TAF: